Time;durP1;ratioP1;P1;durP2;ratioP2;P2;SDS_P1;SDS_P2;PMS_P1;PMS_P2;Temp;Humidity;BMP_temperature;BMP_pressure;BME280_temperature;BME280_humidity;BME280_pressure;Samples;Min_cycle;Max_cycle;Signal;HPM_P1;HPM_P2
2022/11/28 09:34:34;;;;;;;6.13;3.53;;;10.20;99.90;;;;;;4885029;23;20254;-78
2022/11/28 09:37:01;;;;;;;6.87;3.67;;;10.20;99.90;;;;;;4879955;29;20223;-79
2022/11/28 09:39:27;;;;;;;7.63;4.13;;;10.20;99.90;;;;;;4879892;29;20218;-79
2022/11/28 09:42:04;;;;;;;6.57;4.20;;;10.10;99.90;;;;;;4879746;29;20231;-79
2022/11/28 09:44:37;;;;;;;10.10;4.70;;;10.20;99.90;;;;;;4879865;29;20217;-79
2022/11/28 09:47:10;;;;;;;7.50;4.27;;;10.20;99.90;;;;;;4879958;29;20217;-78
2022/11/28 09:49:45;;;;;;;10.10;4.30;;;10.20;99.90;;;;;;4879429;29;20235;-79
2022/11/28 09:52:24;;;;;;;7.67;5.03;;;10.20;99.90;;;;;;4879752;29;20800;-79
2022/11/28 09:54:58;;;;;;;10.90;4.87;;;10.20;99.90;;;;;;4879858;29;20602;-78
2022/11/28 09:57:33;;;;;;;11.07;4.27;;;10.20;99.90;;;;;;4879699;29;20215;-79
2022/11/28 10:00:01;;;;;;;7.30;3.40;;;10.20;99.90;;;;;;4879602;29;20226;-79
2022/11/28 10:02:35;;;;;;;5.93;3.50;;;10.40;99.90;;;;;;4879572;29;20231;-79
2022/11/28 10:05:11;;;;;;;9.53;3.87;;;10.40;99.90;;;;;;4879902;29;20267;-80
2022/11/28 10:07:47;;;;;;;9.50;3.17;;;10.50;99.90;;;;;;4879668;29;20303;-79
2022/11/28 10:10:22;;;;;;;6.90;3.13;;;10.60;99.90;;;;;;4879062;29;20242;-80
2022/11/28 10:12:56;;;;;;;7.67;3.50;;;10.80;99.90;;;;;;4879585;29;20210;-79
2022/11/28 10:15:40;;;;;;;5.13;3.03;;;11.00;99.90;;;;;;4879413;29;20238;-79
2022/11/28 10:18:19;;;;;;;8.37;3.13;;;10.90;99.90;;;;;;4879412;29;20251;-79
2022/11/28 10:20:52;;;;;;;7.87;3.40;;;11.00;99.90;;;;;;4878934;29;20239;-78
2022/11/28 10:23:24;;;;;;;7.80;3.27;;;11.10;99.90;;;;;;4879403;29;20215;-79
2022/11/28 10:25:55;;;;;;;6.17;3.40;;;11.00;99.90;;;;;;4879492;29;20245;-79
2022/11/28 10:28:26;;;;;;;8.40;3.57;;;10.90;99.90;;;;;;4879180;29;20218;-79
2022/11/28 10:30:57;;;;;;;7.70;3.43;;;10.90;99.90;;;;;;4879115;29;20239;-79
2022/11/28 10:33:29;;;;;;;6.33;3.03;;;10.90;99.90;;;;;;4879285;29;20241;-79
2022/11/28 10:36:01;;;;;;;7.83;3.30;;;10.90;99.90;;;;;;4879337;29;20212;-79
2022/11/28 10:38:32;;;;;;;10.90;3.67;;;11.00;99.90;;;;;;4879548;29;20219;-78
2022/11/28 10:41:04;;;;;;;6.03;3.20;;;11.10;99.90;;;;;;4876005;29;20238;-80
2022/11/28 10:43:38;;;;;;;7.10;3.40;;;11.00;99.90;;;;;;4871728;29;20737;-77
2022/11/28 10:46:35;;;;;;;7.13;3.03;;;10.90;99.90;;;;;;4878654;29;20680;-78
2022/11/28 10:49:16;;;;;;;7.03;3.30;;;11.00;99.90;;;;;;4878937;29;20203;-79
2022/11/28 10:51:53;;;;;;;8.03;3.37;;;11.10;99.90;;;;;;4878548;29;20321;-79
2022/11/28 10:54:38;;;;;;;10.33;4.23;;;11.10;99.90;;;;;;4878704;29;20375;-79
2022/11/28 10:57:11;;;;;;;7.33;3.03;;;11.10;99.90;;;;;;4878425;29;20215;-77
2022/11/28 10:59:55;;;;;;;7.33;3.60;;;11.30;99.90;;;;;;4879026;29;20226;-79
2022/11/28 11:02:31;;;;;;;6.73;3.33;;;11.30;99.90;;;;;;4878529;29;20740;-78
2022/11/28 11:04:58;;;;;;;6.63;2.90;;;11.20;99.90;;;;;;4878393;29;20322;-79
2022/11/28 11:07:30;;;;;;;7.20;3.50;;;11.20;99.90;;;;;;4878569;29;20221;-78
2022/11/28 11:10:02;;;;;;;8.10;2.90;;;11.30;99.90;;;;;;4879033;29;20251;-79
2022/11/28 11:12:33;;;;;;;6.43;3.37;;;11.40;99.90;;;;;;4878242;29;20231;-78
2022/11/28 11:15:15;;;;;;;6.90;2.80;;;11.50;99.90;;;;;;4878578;29;20222;-78
2022/11/28 11:17:42;;;;;;;7.10;3.27;;;11.60;99.90;;;;;;4878677;29;20211;-77
2022/11/28 11:20:27;;;;;;;6.73;3.40;;;11.60;99.90;;;;;;4878805;29;20223;-78
2022/11/28 11:22:57;;;;;;;6.07;2.97;;;11.60;99.90;;;;;;4881329;29;20304;-77
2022/11/28 11:25:25;;;;;;;8.77;3.33;;;11.60;99.90;;;;;;4881992;29;20211;-78
2022/11/28 11:27:54;;;;;;;7.77;3.73;;;11.50;99.90;;;;;;4882181;29;20721;-79
2022/11/28 11:30:26;;;;;;;4.83;2.83;;;11.40;99.90;;;;;;4881727;29;20340;-77
2022/11/28 11:32:53;;;;;;;5.77;2.77;;;11.40;99.90;;;;;;4882020;29;20218;-79
2022/11/28 11:35:23;;;;;;;5.97;3.03;;;11.50;99.90;;;;;;4881757;29;20666;-77
2022/11/28 11:37:50;;;;;;;9.47;3.43;;;11.50;99.90;;;;;;4881460;29;20569;-78
2022/11/28 11:40:29;;;;;;;7.83;2.97;;;11.60;99.90;;;;;;4881573;29;20219;-78
2022/11/28 11:42:58;;;;;;;9.90;3.43;;;11.70;99.90;;;;;;4881430;29;20225;-77
2022/11/28 11:45:29;;;;;;;7.30;3.60;;;11.80;99.90;;;;;;4881605;29;20211;-79
2022/11/28 11:47:56;;;;;;;7.60;3.63;;;11.90;99.90;;;;;;4881511;29;20222;-79
2022/11/28 11:50:25;;;;;;;10.00;3.23;;;12.10;99.90;;;;;;4881230;29;20337;-78
2022/11/28 11:53:05;;;;;;;7.67;3.33;;;11.90;99.90;;;;;;4881326;29;20218;-80
2022/11/28 11:55:43;;;;;;;8.77;3.40;;;11.90;99.90;;;;;;4881511;29;20305;-79
2022/11/28 11:58:15;;;;;;;5.33;2.73;;;12.00;99.90;;;;;;4881430;29;20310;-79
2022/11/28 12:00:44;;;;;;;8.73;3.27;;;12.20;99.90;;;;;;4881285;29;20238;-79
2022/11/28 12:03:18;;;;;;;7.10;3.07;;;12.20;99.90;;;;;;4881454;29;20218;-79
2022/11/28 12:05:50;;;;;;;7.43;3.00;;;12.10;99.90;;;;;;4880878;29;20206;-79
2022/11/28 12:08:23;;;;;;;7.23;3.60;;;12.10;99.90;;;;;;4881432;29;20481;-78
2022/11/28 12:11:00;;;;;;;7.40;3.23;;;12.10;99.90;;;;;;4880956;29;20777;-78
2022/11/28 12:13:27;;;;;;;8.00;3.13;;;12.10;99.90;;;;;;4881151;29;20214;-78
2022/11/28 12:16:00;;;;;;;5.30;2.80;;;12.00;99.90;;;;;;4881044;29;20217;-79
2022/11/28 12:18:35;;;;;;;8.77;3.37;;;11.90;99.90;;;;;;4881094;29;20211;-79
2022/11/28 12:21:12;;;;;;;7.90;3.60;;;11.90;99.90;;;;;;4880299;29;20235;-80
2022/11/28 12:24:04;;;;;;;6.83;2.97;;;11.80;99.90;;;;;;4880865;29;20214;-78
2022/11/28 12:26:41;;;;;;;7.00;3.53;;;11.70;99.90;;;;;;4880657;29;20682;-79
2022/11/28 12:29:30;;;;;;;8.17;3.20;;;11.70;99.90;;;;;;4880907;29;20206;-79
2022/11/28 12:32:12;;;;;;;7.33;3.63;;;11.60;99.90;;;;;;4880232;29;20705;-80
2022/11/28 12:34:53;;;;;;;9.83;3.23;;;11.60;99.90;;;;;;4880343;29;20656;-79
2022/11/28 12:37:31;;;;;;;9.37;3.23;;;11.80;99.90;;;;;;4866628;29;20572;-79
2022/11/28 12:40:10;;;;;;;9.17;3.20;;;11.70;99.90;;;;;;4862103;29;20303;-75
2022/11/28 12:42:55;;;;;;;6.03;2.87;;;11.60;99.90;;;;;;4877169;29;20210;-76
2022/11/28 12:45:34;;;;;;;12.63;3.53;;;11.60;99.90;;;;;;4880522;29;20219;-80
2022/11/28 12:48:15;;;;;;;10.17;3.70;;;11.60;99.90;;;;;;4880381;29;20215;-79
2022/11/28 12:50:45;;;;;;;6.30;3.20;;;11.70;99.90;;;;;;4880232;29;20252;-79
2022/11/28 12:53:41;;;;;;;6.10;2.80;;;11.70;99.90;;;;;;4880328;29;20582;-81
2022/11/28 12:56:27;;;;;;;6.13;3.10;;;11.90;99.90;;;;;;4880784;29;20207;-80
2022/11/28 12:59:02;;;;;;;9.33;3.60;;;12.20;99.90;;;;;;4880187;29;20207;-80
2022/11/28 13:01:42;;;;;;;10.67;3.00;;;12.20;99.90;;;;;;4879252;29;20244;-79
2022/11/28 13:04:26;;;;;;;10.97;3.67;;;12.10;99.90;;;;;;4879487;29;20596;-80
2022/11/28 13:07:01;;;;;;;11.13;3.67;;;12.10;99.90;;;;;;4880322;29;20298;-79
2022/11/28 13:09:32;;;;;;;8.23;2.70;;;12.00;99.90;;;;;;4880278;29;20221;-78
2022/11/28 13:12:17;;;;;;;9.47;3.67;;;12.20;99.90;;;;;;4879897;29;20334;-80
2022/11/28 13:14:52;;;;;;;5.77;2.93;;;12.10;99.90;;;;;;4880115;29;20730;-80
2022/11/28 13:17:34;;;;;;;7.43;2.87;;;12.20;99.90;;;;;;4880508;29;20215;-80
2022/11/28 13:20:08;;;;;;;6.53;2.93;;;12.30;99.90;;;;;;4880003;29;20245;-79
2022/11/28 13:22:46;;;;;;;5.50;2.57;;;12.40;99.90;;;;;;4879764;29;20298;-78
2022/11/28 13:25:24;;;;;;;5.57;2.50;;;12.40;99.90;;;;;;4879939;29;20229;-79
2022/11/28 13:27:59;;;;;;;10.23;3.67;;;12.30;99.90;;;;;;4879508;29;20253;-78
2022/11/28 13:30:31;;;;;;;7.33;2.57;;;12.30;99.90;;;;;;4879515;29;20234;-78
2022/11/28 13:33:04;;;;;;;6.50;2.60;;;12.20;99.90;;;;;;4879721;29;20226;-79
2022/11/28 13:35:31;;;;;;;5.63;2.70;;;12.20;99.90;;;;;;4879433;29;20229;-77
2022/11/28 13:38:05;;;;;;;6.93;2.80;;;12.30;99.90;;;;;;4879806;29;20221;-79
2022/11/28 13:40:38;;;;;;;6.77;2.70;;;12.40;99.90;;;;;;4865337;29;20725;-81
2022/11/28 13:43:13;;;;;;;5.30;2.37;;;12.40;99.90;;;;;;4876216;29;20779;-80
2022/11/28 13:45:44;;;;;;;9.07;2.60;;;12.50;99.90;;;;;;4878253;29;20210;-81
2022/11/28 13:48:46;;;;;;;8.07;3.20;;;12.40;99.90;;;;;;4870412;29;20295;-79
2022/11/28 13:51:18;;;;;;;5.33;2.77;;;12.50;99.90;;;;;;4864742;29;20702;-80
2022/11/28 13:53:46;;;;;;;11.97;2.77;;;12.60;99.90;;;;;;4879173;29;20207;-81
2022/11/28 13:56:23;;;;;;;5.37;3.00;;;12.70;99.90;;;;;;4877482;29;20211;-81
2022/11/28 13:58:53;;;;;;;7.27;2.43;;;12.30;99.90;;;;;;4878646;29;20330;-80
2022/11/28 14:01:24;;;;;;;6.97;2.90;;;12.40;99.90;;;;;;4879361;29;20231;-80
2022/11/28 14:04:03;;;;;;;8.53;3.53;;;12.50;99.90;;;;;;4879269;29;20211;-79
2022/11/28 14:06:32;;;;;;;9.90;3.73;;;12.40;99.90;;;;;;4879133;29;20301;-79
2022/11/28 14:09:04;;;;;;;8.70;3.23;;;12.40;99.90;;;;;;4879344;29;20302;-78
2022/11/28 14:11:52;;;;;;;6.43;2.90;;;12.20;99.90;;;;;;4879003;29;20243;-79
2022/11/28 14:14:47;;;;;;;12.77;2.80;;;12.10;99.90;;;;;;4879447;29;20225;-78
2022/11/28 14:17:31;;;;;;;7.73;3.07;;;11.90;99.90;;;;;;4879383;29;20207;-79
2022/11/28 14:20:19;;;;;;;9.43;2.80;;;12.00;99.90;;;;;;4879447;29;20211;-80
2022/11/28 14:23:12;;;;;;;5.70;2.47;;;12.00;99.90;;;;;;4878800;29;20207;-78
2022/11/28 14:25:42;;;;;;;5.50;2.77;;;11.90;99.90;;;;;;4879133;29;20217;-80
2022/11/28 14:28:20;;;;;;;8.27;2.67;;;11.80;99.90;;;;;;4879435;29;20215;-79
2022/11/28 14:30:48;;;;;;;7.30;2.50;;;11.70;99.90;;;;;;4878801;29;20306;-79
2022/11/28 14:33:23;;;;;;;7.47;2.77;;;11.80;99.90;;;;;;4879005;29;20221;-79
2022/11/28 14:36:32;;;;;;;5.87;2.33;;;11.70;99.90;;;;;;4879306;29;20210;-79
2022/11/28 14:39:33;;;;;;;5.10;2.10;;;11.90;99.90;;;;;;4878983;29;20682;-78
2022/11/28 14:42:34;;;;;;;6.17;2.50;;;11.80;99.90;;;;;;4878666;29;20239;-79
2022/11/28 14:45:02;;;;;;;5.00;2.40;;;11.80;99.90;;;;;;4879079;29;20249;-77
2022/11/28 14:47:31;;;;;;;10.27;2.63;;;11.80;99.90;;;;;;4878898;29;20214;-77
2022/11/28 14:50:37;;;;;;;6.33;2.60;;;11.80;99.90;;;;;;4878835;29;20219;-78
2022/11/28 14:53:38;;;;;;;9.40;2.37;;;11.80;99.90;;;;;;4870280;29;20306;-77
2022/11/28 14:56:22;;;;;;;7.53;2.40;;;11.90;99.90;;;;;;4878916;29;20217;-79
2022/11/28 14:58:51;;;;;;;6.67;2.77;;;11.90;99.90;;;;;;4882322;29;20693;-77
2022/11/28 15:01:27;;;;;;;7.90;2.87;;;11.90;99.90;;;;;;4877890;29;20228;-78
2022/11/28 15:03:59;;;;;;;7.07;2.63;;;11.80;99.90;;;;;;4878652;29;20217;-75
2022/11/28 15:06:33;;;;;;;8.80;2.87;;;11.60;99.90;;;;;;4881766;29;20207;-77
2022/11/28 15:09:07;;;;;;;6.93;2.90;;;11.60;99.90;;;;;;4881924;29;20216;-77
2022/11/28 15:11:47;;;;;;;8.10;2.70;;;11.50;99.90;;;;;;4882211;29;20235;-76
2022/11/28 15:14:21;;;;;;;8.23;2.97;;;11.40;99.90;;;;;;4881389;29;20211;-76
2022/11/28 15:16:51;;;;;;;9.63;2.90;;;11.40;99.90;;;;;;4876706;29;20218;-77
2022/11/28 15:19:23;;;;;;;8.77;2.63;;;11.40;99.90;;;;;;4881412;29;20742;-77
2022/11/28 15:21:53;;;;;;;10.20;2.60;;;11.40;99.90;;;;;;4881518;29;20233;-78
2022/11/28 15:24:27;;;;;;;8.13;2.57;;;11.50;99.90;;;;;;4881784;29;20211;-77
2022/11/28 15:26:56;;;;;;;6.67;2.53;;;11.30;99.90;;;;;;4881708;29;20246;-77
2022/11/28 15:29:25;;;;;;;7.33;2.60;;;11.20;99.90;;;;;;4881738;29;20207;-77
2022/11/28 15:31:54;;;;;;;10.13;3.00;;;11.30;99.90;;;;;;4881858;29;20243;-77
2022/11/28 15:34:27;;;;;;;11.27;2.67;;;11.40;99.90;;;;;;4881403;29;20222;-77
2022/11/28 15:36:55;;;;;;;7.67;3.10;;;11.30;99.90;;;;;;4881551;29;20306;-77
2022/11/28 15:39:33;;;;;;;9.87;3.53;;;11.30;99.90;;;;;;4881656;29;20591;-77
2022/11/28 15:42:01;;;;;;;8.30;3.50;;;11.30;99.90;;;;;;4881157;29;20235;-77
2022/11/28 15:44:29;;;;;;;10.13;3.50;;;11.20;99.90;;;;;;4881489;29;20701;-77
2022/11/28 15:46:56;;;;;;;13.40;3.77;;;11.30;99.90;;;;;;4881283;29;20298;-78
2022/11/28 15:49:29;;;;;;;14.70;4.10;;;11.20;99.90;;;;;;4881368;29;20215;-77
2022/11/28 15:51:59;;;;;;;11.07;4.50;;;11.10;99.90;;;;;;4881200;29;20295;-77
2022/11/28 15:54:33;;;;;;;10.33;4.00;;;11.00;99.90;;;;;;4881237;29;20691;-77
2022/11/28 15:57:00;;;;;;;11.27;4.23;;;10.90;99.90;;;;;;4881049;29;20219;-77
2022/11/28 15:59:28;;;;;;;10.73;4.63;;;10.90;99.90;;;;;;4881471;29;20246;-77
2022/11/28 16:01:58;;;;;;;12.90;5.13;;;10.90;99.90;;;;;;4881395;29;20319;-77
2022/11/28 16:04:25;;;;;;;12.10;4.97;;;10.80;99.90;;;;;;4881210;29;20215;-77
2022/11/28 16:06:56;;;;;;;9.97;4.20;;;10.80;99.90;;;;;;4880499;29;20211;-78
2022/11/28 16:09:31;;;;;;;13.80;3.63;;;10.80;99.90;;;;;;4880871;29;20247;-77
2022/11/28 16:11:58;;;;;;;10.47;2.50;;;10.70;99.90;;;;;;4881160;29;20234;-78
2022/11/28 16:14:28;;;;;;;7.53;2.70;;;10.70;99.90;;;;;;4880871;29;20219;-78
2022/11/28 16:16:56;;;;;;;9.07;2.87;;;10.70;99.90;;;;;;4880948;29;20612;-78
2022/11/28 16:19:25;;;;;;;5.37;3.00;;;10.70;99.90;;;;;;4880941;29;20600;-78
2022/11/28 16:21:56;;;;;;;9.83;2.87;;;10.70;99.90;;;;;;4880324;29;20231;-79
2022/11/28 16:24:27;;;;;;;9.60;3.20;;;10.70;99.90;;;;;;4881077;29;20302;-79
2022/11/28 16:26:58;;;;;;;10.57;3.27;;;10.60;99.90;;;;;;4880782;29;20230;-79
2022/11/28 16:29:28;;;;;;;12.70;3.93;;;10.60;99.90;;;;;;4880716;29;20298;-78
2022/11/28 16:32:05;;;;;;;8.83;3.17;;;10.70;99.90;;;;;;4875039;29;20295;-80
2022/11/28 16:34:46;;;;;;;12.47;3.40;;;10.70;99.90;;;;;;4880315;29;20233;-78
2022/11/28 16:37:13;;;;;;;9.13;3.40;;;10.60;99.90;;;;;;4880481;29;20203;-78
2022/11/28 16:39:41;;;;;;;9.43;3.13;;;10.50;99.90;;;;;;4880421;29;20682;-78
2022/11/28 16:42:18;;;;;;;11.90;3.03;;;10.60;99.90;;;;;;4880367;29;20652;-78
2022/11/28 16:44:45;;;;;;;9.70;3.30;;;10.60;99.90;;;;;;4880788;29;20211;-80
2022/11/28 16:47:28;;;;;;;14.17;3.37;;;10.60;99.90;;;;;;4880609;29;20295;-78
2022/11/28 16:50:22;;;;;;;9.27;3.23;;;10.60;99.90;;;;;;4871115;29;20287;-78
2022/11/28 16:52:52;;;;;;;7.57;3.50;;;10.60;99.90;;;;;;4828755;29;20246;-78
2022/11/28 16:55:43;;;;;;;11.00;3.90;;;10.50;99.90;;;;;;4861643;29;20211;-79
2022/11/28 16:58:22;;;;;;;14.57;3.53;;;10.40;99.90;;;;;;4861873;29;20223;-78
2022/11/28 17:00:58;;;;;;;9.27;3.67;;;10.40;99.90;;;;;;4864500;29;20226;-78
2022/11/28 17:03:46;;;;;;;11.00;3.77;;;10.40;99.90;;;;;;4880198;29;20211;-78
2022/11/28 17:06:27;;;;;;;11.80;3.63;;;10.30;99.90;;;;;;4880258;29;20207;-78
2022/11/28 17:08:54;;;;;;;10.40;4.20;;;10.30;99.90;;;;;;4880105;29;20214;-79
2022/11/28 17:11:24;;;;;;;10.33;3.70;;;10.30;99.90;;;;;;4880088;29;20234;-78
2022/11/28 17:13:53;;;;;;;9.60;3.63;;;10.20;99.90;;;;;;4879894;29;20230;-78
2022/11/28 17:16:22;;;;;;;9.73;4.13;;;10.30;99.90;;;;;;4879856;29;20211;-78
2022/11/28 17:18:50;;;;;;;11.43;4.40;;;10.30;99.90;;;;;;4879078;29;20217;-79
2022/11/28 17:21:26;;;;;;;8.30;4.40;;;10.20;99.90;;;;;;4879390;29;20227;-78
2022/11/28 17:23:53;;;;;;;8.07;4.03;;;10.30;99.90;;;;;;4879741;29;20213;-77
2022/11/28 17:26:20;;;;;;;8.47;4.67;;;10.30;99.90;;;;;;4879478;29;20211;-79
2022/11/28 17:28:47;;;;;;;15.07;4.90;;;10.20;99.90;;;;;;4879646;29;20214;-78
2022/11/28 17:31:15;;;;;;;12.70;4.67;;;10.30;99.90;;;;;;4879651;29;20231;-77
2022/11/28 17:33:42;;;;;;;11.13;4.40;;;10.20;99.90;;;;;;4879884;29;20215;-79
2022/11/28 17:36:10;;;;;;;10.93;4.33;;;10.30;99.90;;;;;;4879627;29;20230;-78
2022/11/28 17:38:37;;;;;;;10.83;4.67;;;10.20;99.90;;;;;;4879617;29;20210;-78
2022/11/28 17:41:04;;;;;;;11.07;4.70;;;10.20;99.90;;;;;;4879303;29;20318;-77
2022/11/28 17:43:32;;;;;;;9.77;4.00;;;10.20;99.90;;;;;;4879527;29;20225;-78
2022/11/28 17:45:58;;;;;;;10.13;4.20;;;10.20;99.90;;;;;;4879601;29;20211;-78
2022/11/28 17:48:27;;;;;;;11.50;4.30;;;10.20;99.90;;;;;;4879485;29;20207;-77
2022/11/28 17:50:54;;;;;;;13.63;4.57;;;10.20;99.90;;;;;;4879347;29;20322;-79
2022/11/28 17:53:22;;;;;;;11.80;4.80;;;10.20;99.90;;;;;;4879420;29;20243;-79
2022/11/28 17:55:50;;;;;;;7.63;3.40;;;10.20;99.90;;;;;;4879205;29;20663;-79
2022/11/28 17:58:20;;;;;;;9.10;3.93;;;10.30;99.90;;;;;;4879229;29;20275;-79
2022/11/28 18:00:48;;;;;;;9.23;3.60;;;10.30;99.90;;;;;;4879212;29;20235;-79
2022/11/28 18:03:15;;;;;;;7.33;4.13;;;10.30;99.90;;;;;;4879037;29;20378;-80
2022/11/28 18:05:46;;;;;;;13.70;4.33;;;10.40;99.90;;;;;;4879179;29;20219;-78
2022/11/28 18:08:14;;;;;;;10.27;4.40;;;10.30;99.90;;;;;;4879458;29;20221;-77
2022/11/28 18:10:41;;;;;;;9.40;4.47;;;10.30;99.90;;;;;;4879058;29;20660;-78
2022/11/28 18:13:09;;;;;;;12.13;4.23;;;10.20;99.90;;;;;;4879149;29;20702;-79
2022/11/28 18:15:36;;;;;;;9.53;4.07;;;10.20;99.90;;;;;;4879358;29;20207;-78
2022/11/28 18:18:04;;;;;;;11.10;4.53;;;10.30;99.90;;;;;;4879047;29;20219;-77
2022/11/28 18:20:31;;;;;;;8.73;4.50;;;10.30;99.90;;;;;;4878118;29;20605;-78
2022/11/28 18:23:00;;;;;;;13.57;4.77;;;10.40;99.90;;;;;;4878620;29;20611;-78
2022/11/28 18:25:28;;;;;;;10.33;4.83;;;10.40;99.90;;;;;;4878960;29;20337;-77
2022/11/28 18:27:54;;;;;;;10.50;4.13;;;10.40;99.90;;;;;;4879025;29;20309;-78
2022/11/28 18:30:21;;;;;;;11.07;4.23;;;10.40;99.90;;;;;;4879907;29;20211;-78
2022/11/28 18:32:48;;;;;;;16.10;4.60;;;10.50;99.90;;;;;;4884030;29;20773;-78
2022/11/28 18:35:15;;;;;;;11.33;4.30;;;10.50;99.90;;;;;;4883443;29;20222;-78
2022/11/28 18:37:42;;;;;;;11.33;4.00;;;10.50;99.90;;;;;;4883269;29;20213;-77
2022/11/28 18:40:13;;;;;;;8.67;4.50;;;10.50;99.90;;;;;;4882820;29;20230;-78
2022/11/28 18:42:43;;;;;;;8.87;4.00;;;10.50;99.90;;;;;;4882535;29;20637;-78
2022/11/28 18:45:12;;;;;;;12.40;4.30;;;10.50;99.90;;;;;;4882987;29;20207;-79
2022/11/28 18:47:39;;;;;;;8.73;4.17;;;10.50;99.90;;;;;;4882523;29;20679;-78
2022/11/28 18:50:07;;;;;;;13.10;4.37;;;10.40;99.90;;;;;;4882816;29;20206;-79
2022/11/28 18:52:34;;;;;;;7.93;3.93;;;10.30;99.90;;;;;;4882734;29;20325;-78
2022/11/28 18:55:01;;;;;;;8.20;3.50;;;10.20;99.90;;;;;;4883172;29;20215;-78
2022/11/28 18:57:31;;;;;;;18.27;4.60;;;10.20;99.90;;;;;;4885057;29;20255;-77
2022/11/28 18:59:59;;;;;;;9.43;3.90;;;10.20;99.90;;;;;;4883806;29;20339;-79
2022/11/28 19:02:26;;;;;;;9.50;4.30;;;10.20;99.90;;;;;;4883978;29;20350;-78
2022/11/28 19:04:53;;;;;;;12.87;4.03;;;10.20;99.90;;;;;;4883594;29;20214;-79
2022/11/28 19:07:20;;;;;;;16.70;4.87;;;10.20;99.90;;;;;;4883860;29;20304;-78
2022/11/28 19:09:47;;;;;;;12.60;3.70;;;10.20;99.90;;;;;;4883668;29;20218;-79
2022/11/28 19:12:14;;;;;;;11.57;4.93;;;10.10;99.90;;;;;;4883027;29;20710;-79
2022/11/28 19:14:42;;;;;;;16.90;4.97;;;10.10;99.90;;;;;;4883297;29;20219;-79
2022/11/28 19:17:10;;;;;;;13.77;4.90;;;10.10;99.90;;;;;;4882573;29;20217;-78
2022/11/28 19:19:38;;;;;;;11.97;4.87;;;10.10;99.90;;;;;;4882287;29;20214;-79
2022/11/28 19:22:06;;;;;;;14.17;5.20;;;10.10;99.90;;;;;;4882454;29;20235;-79
2022/11/28 19:24:33;;;;;;;13.40;5.27;;;10.00;99.90;;;;;;4882505;29;20694;-75
2022/11/28 19:27:00;;;;;;;10.70;5.13;;;9.90;99.90;;;;;;4877541;29;20218;-76
2022/11/28 19:29:27;;;;;;;16.20;4.63;;;9.90;99.90;;;;;;4881288;29;20217;-76
2022/11/28 19:31:55;;;;;;;8.57;5.00;;;9.90;99.90;;;;;;4882176;29;20636;-78
2022/11/28 19:34:22;;;;;;;12.37;4.53;;;9.80;99.90;;;;;;4882128;29;20218;-76
2022/11/28 19:36:50;;;;;;;11.20;4.70;;;9.90;99.90;;;;;;4881874;29;20585;-76
2022/11/28 19:39:19;;;;;;;11.60;4.70;;;9.80;99.90;;;;;;4881819;29;20211;-76
2022/11/28 19:41:46;;;;;;;11.13;4.43;;;9.80;99.90;;;;;;4880800;29;20238;-76
2022/11/28 19:44:14;;;;;;;12.00;4.00;;;9.70;99.90;;;;;;4881394;29;20218;-76
2022/11/28 19:46:41;;;;;;;9.20;4.43;;;9.70;99.90;;;;;;4881459;29;20617;-77
2022/11/28 19:49:20;;;;;;;10.73;4.10;;;9.60;99.90;;;;;;4882347;29;20217;-76
2022/11/28 19:51:47;;;;;;;18.40;4.70;;;9.60;99.90;;;;;;4881589;29;20241;-76
2022/11/28 19:54:15;;;;;;;10.10;3.90;;;9.60;99.90;;;;;;4882272;29;20262;-76
2022/11/28 19:56:41;;;;;;;7.93;3.63;;;9.60;99.90;;;;;;4882679;29;20251;-76
2022/11/28 19:59:10;;;;;;;14.33;4.83;;;9.60;99.90;;;;;;4881652;29;20215;-76
2022/11/28 20:01:38;;;;;;;12.27;4.60;;;9.50;99.90;;;;;;4882500;29;20294;-76
2022/11/28 20:04:06;;;;;;;8.47;4.43;;;9.50;99.90;;;;;;4882067;29;20270;-75
2022/11/28 20:06:35;;;;;;;11.40;4.43;;;9.50;99.90;;;;;;4881595;29;20655;-75
2022/11/28 20:09:06;;;;;;;15.03;4.87;;;9.40;99.90;;;;;;4881517;29;20238;-75
2022/11/28 20:11:34;;;;;;;14.73;5.13;;;9.40;99.90;;;;;;4881324;29;20231;-75
2022/11/28 20:14:03;;;;;;;11.50;4.50;;;9.40;99.90;;;;;;4881437;29;20472;-75
2022/11/28 20:16:31;;;;;;;15.37;5.27;;;9.40;99.90;;;;;;4881375;29;20211;-76
2022/11/28 20:18:59;;;;;;;11.97;5.17;;;9.40;99.90;;;;;;4881151;29;20223;-76
2022/11/28 20:21:26;;;;;;;12.47;4.43;;;9.30;99.90;;;;;;4880687;29;20227;-75
2022/11/28 20:23:58;;;;;;;11.40;5.10;;;9.40;99.90;;;;;;4881101;29;20222;-75
2022/11/28 20:26:26;;;;;;;12.70;5.47;;;9.30;99.90;;;;;;4880723;29;20297;-76
2022/11/28 20:28:54;;;;;;;11.60;5.07;;;9.30;99.90;;;;;;4880892;29;20219;-76
2022/11/28 20:31:22;;;;;;;12.73;5.30;;;9.40;99.90;;;;;;4880818;29;20235;-76
2022/11/28 20:33:50;;;;;;;19.03;6.17;;;9.40;99.90;;;;;;4880679;29;20243;-76
2022/11/28 20:36:19;;;;;;;12.50;5.93;;;9.40;99.90;;;;;;4880899;29;20219;-76
2022/11/28 20:38:46;;;;;;;15.93;4.13;;;9.30;99.90;;;;;;4881123;29;20310;-76
2022/11/28 20:41:16;;;;;;;12.13;4.93;;;9.30;99.90;;;;;;4880997;29;20235;-75
2022/11/28 20:43:43;;;;;;;12.03;4.80;;;9.30;99.90;;;;;;4880994;29;20574;-76
2022/11/28 20:46:15;;;;;;;9.87;4.10;;;9.30;99.90;;;;;;4880584;29;20215;-76
2022/11/28 20:48:43;;;;;;;13.17;4.77;;;9.40;99.90;;;;;;4880304;29;20302;-77
2022/11/28 20:51:10;;;;;;;12.70;4.73;;;9.50;99.90;;;;;;4879874;29;20318;-77
2022/11/28 20:53:39;;;;;;;12.80;4.57;;;9.50;99.90;;;;;;4880236;29;20245;-76
2022/11/28 20:56:09;;;;;;;10.63;4.57;;;9.60;99.90;;;;;;4880094;29;20218;-76
2022/11/28 20:58:37;;;;;;;12.80;4.40;;;9.60;99.90;;;;;;4880117;29;20620;-76
2022/11/28 21:01:05;;;;;;;12.93;4.43;;;9.60;99.90;;;;;;4879751;29;20231;-77
2022/11/28 21:03:32;;;;;;;8.43;3.87;;;9.60;99.90;;;;;;4880188;29;20207;-77
2022/11/28 21:05:59;;;;;;;13.83;4.43;;;9.60;99.90;;;;;;4880634;29;20694;-76
2022/11/28 21:08:29;;;;;;;9.07;4.60;;;9.70;99.90;;;;;;4880570;29;20215;-77
2022/11/28 21:10:55;;;;;;;15.17;4.40;;;9.70;99.90;;;;;;4880146;29;20254;-77
2022/11/28 21:13:22;;;;;;;11.50;3.43;;;9.60;99.90;;;;;;4879956;29;20728;-77
2022/11/28 21:15:50;;;;;;;13.87;4.20;;;9.60;99.90;;;;;;4880402;29;20211;-77
2022/11/28 21:18:17;;;;;;;14.40;4.00;;;9.70;99.90;;;;;;4880359;29;20239;-78
2022/11/28 21:20:46;;;;;;;11.17;3.80;;;9.70;99.90;;;;;;4879827;29;20580;-77
2022/11/28 21:23:15;;;;;;;10.90;4.43;;;9.60;99.90;;;;;;4880117;29;20217;-77
2022/11/28 21:25:43;;;;;;;11.70;3.73;;;9.60;99.90;;;;;;4880057;29;20207;-77
2022/11/28 21:28:11;;;;;;;10.20;3.53;;;9.50;99.90;;;;;;4880285;29;20211;-76
2022/11/28 21:30:41;;;;;;;11.20;4.03;;;9.50;99.90;;;;;;4880365;29;20215;-77
2022/11/28 21:33:11;;;;;;;9.67;4.47;;;9.50;99.90;;;;;;4879909;29;20330;-76
2022/11/28 21:35:38;;;;;;;8.47;3.80;;;9.40;99.90;;;;;;4879957;29;20211;-77
2022/11/28 21:38:05;;;;;;;9.20;4.10;;;9.50;99.90;;;;;;4879852;29;20678;-76
2022/11/28 21:40:33;;;;;;;13.23;4.07;;;9.50;99.90;;;;;;4879614;29;20260;-76
2022/11/28 21:42:59;;;;;;;10.50;4.03;;;9.50;99.90;;;;;;4879838;29;20219;-76
2022/11/28 21:45:26;;;;;;;9.07;3.97;;;9.40;99.90;;;;;;4879789;29;20217;-76
2022/11/28 21:47:53;;;;;;;7.10;4.60;;;9.40;99.90;;;;;;4879795;29;20667;-76
2022/11/28 21:50:22;;;;;;;9.90;3.93;;;9.50;99.90;;;;;;4879711;29;20221;-76
2022/11/28 21:52:48;;;;;;;10.30;3.17;;;9.50;99.90;;;;;;4879837;29;20703;-76
2022/11/28 21:55:15;;;;;;;8.10;3.10;;;9.50;99.90;;;;;;4879662;29;20211;-76
2022/11/28 21:57:42;;;;;;;7.20;4.00;;;9.40;99.90;;;;;;4880042;29;20314;-76
2022/11/28 22:00:11;;;;;;;7.27;3.57;;;9.40;99.90;;;;;;4879473;29;20207;-76
2022/11/28 22:02:37;;;;;;;9.47;3.77;;;9.30;99.90;;;;;;4879463;29;20221;-76
2022/11/28 22:05:05;;;;;;;10.43;4.07;;;9.40;99.90;;;;;;4878944;29;20689;-76
2022/11/28 22:07:34;;;;;;;8.73;3.30;;;9.40;99.90;;;;;;4879355;29;20227;-75
2022/11/28 22:10:01;;;;;;;7.93;3.40;;;9.40;99.90;;;;;;4879342;29;20742;-76
2022/11/28 22:12:28;;;;;;;5.47;3.10;;;9.20;99.90;;;;;;4879553;29;20322;-77
2022/11/28 22:14:55;;;;;;;6.57;3.33;;;9.10;99.90;;;;;;4879666;29;20245;-77
2022/11/28 22:17:22;;;;;;;8.97;4.20;;;9.00;99.90;;;;;;4879515;29;20218;-76
2022/11/28 22:19:50;;;;;;;8.57;3.87;;;9.00;99.90;;;;;;4879357;29;20211;-76
2022/11/28 22:22:16;;;;;;;10.70;3.47;;;8.90;99.90;;;;;;4879271;29;20322;-76
2022/11/28 22:24:44;;;;;;;7.10;3.07;;;8.80;99.90;;;;;;4879552;29;20225;-76
2022/11/28 22:27:11;;;;;;;8.80;3.57;;;8.70;99.90;;;;;;4879264;29;20214;-76
2022/11/28 22:29:38;;;;;;;6.37;3.20;;;8.60;99.90;;;;;;4879356;29;20663;-77
2022/11/28 22:32:05;;;;;;;9.60;3.03;;;8.60;99.90;;;;;;4878930;29;20263;-77
2022/11/28 22:34:32;;;;;;;10.67;3.73;;;8.60;99.90;;;;;;4879043;29;20235;-76
2022/11/28 22:36:58;;;;;;;11.97;3.60;;;8.50;99.90;;;;;;4879149;29;20764;-76
2022/11/28 22:39:25;;;;;;;10.23;3.73;;;8.50;99.90;;;;;;4879478;29;20211;-76
2022/11/28 22:41:54;;;;;;;10.90;4.13;;;8.50;99.90;;;;;;4879356;29;20235;-76
2022/11/28 22:44:21;;;;;;;10.53;4.10;;;8.40;99.90;;;;;;4879229;29;20223;-76